sensor_id;sensor_type;location;lat;lon;timestamp;temperature;humidity
48019;DHT22;33786;48.690;9.562;2023-09-19T00:01:47;17.10;99.90
48019;DHT22;33786;48.690;9.562;2023-09-19T00:04:14;17.10;99.90
48019;DHT22;33786;48.690;9.562;2023-09-19T00:06:41;17.00;99.90
48019;DHT22;33786;48.690;9.562;2023-09-19T00:09:09;17.00;99.90
48019;DHT22;33786;48.690;9.562;2023-09-19T00:11:38;17.00;99.90
48019;DHT22;33786;48.690;9.562;2023-09-19T00:14:05;16.90;99.90
48019;DHT22;33786;48.690;9.562;2023-09-19T00:16:35;16.90;99.90
48019;DHT22;33786;48.690;9.562;2023-09-19T00:19:02;16.90;99.90
48019;DHT22;33786;48.690;9.562;2023-09-19T00:21:32;16.90;99.90
48019;DHT22;33786;48.690;9.562;2023-09-19T00:24:02;16.90;99.90
48019;DHT22;33786;48.690;9.562;2023-09-19T00:26:33;16.90;99.90
48019;DHT22;33786;48.690;9.562;2023-09-19T00:29:08;16.90;99.90
48019;DHT22;33786;48.690;9.562;2023-09-19T00:31:35;16.90;99.90
48019;DHT22;33786;48.690;9.562;2023-09-19T00:34:08;16.90;99.90
48019;DHT22;33786;48.690;9.562;2023-09-19T00:36:37;16.90;99.90
48019;DHT22;33786;48.690;9.562;2023-09-19T00:39:07;16.90;99.90
48019;DHT22;33786;48.690;9.562;2023-09-19T00:41:40;17.00;99.90
48019;DHT22;33786;48.690;9.562;2023-09-19T00:44:07;16.90;99.90
48019;DHT22;33786;48.690;9.562;2023-09-19T00:46:37;16.90;99.90
48019;DHT22;33786;48.690;9.562;2023-09-19T00:49:04;16.90;99.90
48019;DHT22;33786;48.690;9.562;2023-09-19T00:51:38;16.80;99.90
48019;DHT22;33786;48.690;9.562;2023-09-19T00:54:12;16.90;99.90
48019;DHT22;33786;48.690;9.562;2023-09-19T00:56:50;16.90;99.90
48019;DHT22;33786;48.690;9.562;2023-09-19T00:59:17;16.90;99.90
48019;DHT22;33786;48.690;9.562;2023-09-19T01:01:44;17.00;99.90
48019;DHT22;33786;48.690;9.562;2023-09-19T01:04:19;17.00;99.90
48019;DHT22;33786;48.690;9.562;2023-09-19T01:06:46;17.00;99.90
48019;DHT22;33786;48.690;9.562;2023-09-19T01:09:20;17.00;99.90
48019;DHT22;33786;48.690;9.562;2023-09-19T01:11:49;17.00;99.90
48019;DHT22;33786;48.690;9.562;2023-09-19T01:14:42;17.00;99.90
48019;DHT22;33786;48.690;9.562;2023-09-19T01:17:29;16.90;99.90
48019;DHT22;33786;48.690;9.562;2023-09-19T01:20:03;16.90;99.90
48019;DHT22;33786;48.690;9.562;2023-09-19T01:25:33;16.90;99.90
48019;DHT22;33786;48.690;9.562;2023-09-19T01:30:42;16.90;99.90
48019;DHT22;33786;48.690;9.562;2023-09-19T01:33:15;17.00;99.90
48019;DHT22;33786;48.690;9.562;2023-09-19T01:35:43;16.90;99.90
48019;DHT22;33786;48.690;9.562;2023-09-19T01:38:15;16.90;99.90
48019;DHT22;33786;48.690;9.562;2023-09-19T01:40:42;17.00;99.90
48019;DHT22;33786;48.690;9.562;2023-09-19T01:43:27;17.00;99.90
48019;DHT22;33786;48.690;9.562;2023-09-19T01:46:09;17.00;99.90
48019;DHT22;33786;48.690;9.562;2023-09-19T01:48:45;17.10;99.90
48019;DHT22;33786;48.690;9.562;2023-09-19T01:51:20;17.00;99.90
48019;DHT22;33786;48.690;9.562;2023-09-19T01:54:00;17.00;99.90
48019;DHT22;33786;48.690;9.562;2023-09-19T01:56:34;17.10;99.90
48019;DHT22;33786;48.690;9.562;2023-09-19T01:59:07;17.00;99.90
48019;DHT22;33786;48.690;9.562;2023-09-19T02:01:37;17.00;99.90
48019;DHT22;33786;48.690;9.562;2023-09-19T02:04:15;17.00;99.90
48019;DHT22;33786;48.690;9.562;2023-09-19T02:06:45;17.00;99.90
48019;DHT22;33786;48.690;9.562;2023-09-19T02:09:18;17.00;99.90
48019;DHT22;33786;48.690;9.562;2023-09-19T02:11:49;17.00;99.90
48019;DHT22;33786;48.690;9.562;2023-09-19T02:14:23;16.90;99.90
48019;DHT22;33786;48.690;9.562;2023-09-19T02:16:55;16.90;99.90
48019;DHT22;33786;48.690;9.562;2023-09-19T02:19:28;16.90;99.90
48019;DHT22;33786;48.690;9.562;2023-09-19T02:22:01;16.90;99.90
48019;DHT22;33786;48.690;9.562;2023-09-19T02:24:34;16.90;99.90
48019;DHT22;33786;48.690;9.562;2023-09-19T02:27:03;16.90;99.90
48019;DHT22;33786;48.690;9.562;2023-09-19T02:29:36;16.90;99.90
48019;DHT22;33786;48.690;9.562;2023-09-19T02:32:07;16.90;99.90
48019;DHT22;33786;48.690;9.562;2023-09-19T02:34:42;16.90;99.90
48019;DHT22;33786;48.690;9.562;2023-09-19T02:37:18;16.90;99.90
48019;DHT22;33786;48.690;9.562;2023-09-19T02:39:47;16.90;99.90
48019;DHT22;33786;48.690;9.562;2023-09-19T02:42:13;16.90;99.90
48019;DHT22;33786;48.690;9.562;2023-09-19T02:44:40;16.90;99.90
48019;DHT22;33786;48.690;9.562;2023-09-19T02:47:15;16.80;99.90
48019;DHT22;33786;48.690;9.562;2023-09-19T02:49:46;16.80;99.90
48019;DHT22;33786;48.690;9.562;2023-09-19T02:52:13;16.80;99.90
48019;DHT22;33786;48.690;9.562;2023-09-19T02:54:41;16.70;99.90
48019;DHT22;33786;48.690;9.562;2023-09-19T02:57:11;16.60;99.90
48019;DHT22;33786;48.690;9.562;2023-09-19T02:59:42;16.50;99.90
48019;DHT22;33786;48.690;9.562;2023-09-19T03:02:15;16.50;99.90
48019;DHT22;33786;48.690;9.562;2023-09-19T03:04:46;16.50;99.90
48019;DHT22;33786;48.690;9.562;2023-09-19T03:07:15;16.40;99.90
48019;DHT22;33786;48.690;9.562;2023-09-19T03:09:44;16.40;99.90
48019;DHT22;33786;48.690;9.562;2023-09-19T03:12:11;16.30;99.90
48019;DHT22;33786;48.690;9.562;2023-09-19T03:14:41;16.20;99.90
48019;DHT22;33786;48.690;9.562;2023-09-19T03:17:09;16.20;99.90
48019;DHT22;33786;48.690;9.562;2023-09-19T03:19:41;16.20;99.90
48019;DHT22;33786;48.690;9.562;2023-09-19T03:22:08;16.10;99.90
48019;DHT22;33786;48.690;9.562;2023-09-19T03:24:37;16.10;99.90
48019;DHT22;33786;48.690;9.562;2023-09-19T03:27:04;16.00;99.90
48019;DHT22;33786;48.690;9.562;2023-09-19T03:29:41;16.00;99.90
48019;DHT22;33786;48.690;9.562;2023-09-19T03:32:13;16.00;99.90
48019;DHT22;33786;48.690;9.562;2023-09-19T03:34:40;16.10;99.90
48019;DHT22;33786;48.690;9.562;2023-09-19T03:37:12;16.20;99.90
48019;DHT22;33786;48.690;9.562;2023-09-19T03:39:48;16.20;99.90
48019;DHT22;33786;48.690;9.562;2023-09-19T03:42:19;16.20;99.90
48019;DHT22;33786;48.690;9.562;2023-09-19T03:44:53;16.20;99.90
48019;DHT22;33786;48.690;9.562;2023-09-19T03:47:26;16.30;99.90
48019;DHT22;33786;48.690;9.562;2023-09-19T03:49:53;16.40;99.90
48019;DHT22;33786;48.690;9.562;2023-09-19T03:52:19;16.40;99.90
48019;DHT22;33786;48.690;9.562;2023-09-19T03:54:46;16.50;99.90
48019;DHT22;33786;48.690;9.562;2023-09-19T03:57:13;16.50;99.90
48019;DHT22;33786;48.690;9.562;2023-09-19T03:59:42;16.50;99.90
48019;DHT22;33786;48.690;9.562;2023-09-19T04:02:14;16.50;99.90
48019;DHT22;33786;48.690;9.562;2023-09-19T04:04:51;16.50;99.90
48019;DHT22;33786;48.690;9.562;2023-09-19T04:07:18;16.50;99.90
48019;DHT22;33786;48.690;9.562;2023-09-19T04:09:49;16.50;99.90
48019;DHT22;33786;48.690;9.562;2023-09-19T04:12:20;16.50;99.90
48019;DHT22;33786;48.690;9.562;2023-09-19T04:14:50;16.50;99.90
48019;DHT22;33786;48.690;9.562;2023-09-19T04:17:16;16.50;99.90
48019;DHT22;33786;48.690;9.562;2023-09-19T04:19:51;16.60;99.90
48019;DHT22;33786;48.690;9.562;2023-09-19T04:22:21;16.60;99.90
48019;DHT22;33786;48.690;9.562;2023-09-19T04:24:47;16.70;99.90
48019;DHT22;33786;48.690;9.562;2023-09-19T04:27:14;16.70;99.90
48019;DHT22;33786;48.690;9.562;2023-09-19T04:29:41;16.70;99.90
48019;DHT22;33786;48.690;9.562;2023-09-19T04:32:11;16.70;99.90
48019;DHT22;33786;48.690;9.562;2023-09-19T04:34:41;16.70;99.90
48019;DHT22;33786;48.690;9.562;2023-09-19T04:37:12;16.60;99.90
48019;DHT22;33786;48.690;9.562;2023-09-19T04:39:41;16.70;99.90
48019;DHT22;33786;48.690;9.562;2023-09-19T04:42:10;16.70;99.90
48019;DHT22;33786;48.690;9.562;2023-09-19T04:44:40;16.60;99.90
48019;DHT22;33786;48.690;9.562;2023-09-19T04:47:10;16.60;99.90
48019;DHT22;33786;48.690;9.562;2023-09-19T04:49:43;16.60;99.90
48019;DHT22;33786;48.690;9.562;2023-09-19T04:52:12;16.50;99.90
48019;DHT22;33786;48.690;9.562;2023-09-19T04:54:46;16.40;99.90
48019;DHT22;33786;48.690;9.562;2023-09-19T04:57:14;16.50;99.90
48019;DHT22;33786;48.690;9.562;2023-09-19T04:59:42;16.50;99.90
48019;DHT22;33786;48.690;9.562;2023-09-19T05:02:10;16.40;99.90
48019;DHT22;33786;48.690;9.562;2023-09-19T05:04:39;16.40;99.90
48019;DHT22;33786;48.690;9.562;2023-09-19T05:07:10;16.50;99.90
48019;DHT22;33786;48.690;9.562;2023-09-19T05:09:39;16.50;99.90
48019;DHT22;33786;48.690;9.562;2023-09-19T05:12:16;16.40;99.90
48019;DHT22;33786;48.690;9.562;2023-09-19T05:14:45;16.40;99.90
48019;DHT22;33786;48.690;9.562;2023-09-19T05:17:17;16.40;99.90
48019;DHT22;33786;48.690;9.562;2023-09-19T05:19:49;16.40;99.90
48019;DHT22;33786;48.690;9.562;2023-09-19T05:22:21;16.40;99.90
48019;DHT22;33786;48.690;9.562;2023-09-19T05:24:49;16.40;99.90
48019;DHT22;33786;48.690;9.562;2023-09-19T05:27:15;16.50;99.90
48019;DHT22;33786;48.690;9.562;2023-09-19T05:29:50;16.70;99.90
48019;DHT22;33786;48.690;9.562;2023-09-19T05:32:19;16.80;99.90
48019;DHT22;33786;48.690;9.562;2023-09-19T05:34:56;17.10;99.90
48019;DHT22;33786;48.690;9.562;2023-09-19T05:37:23;17.50;99.90
48019;DHT22;33786;48.690;9.562;2023-09-19T05:39:53;17.80;99.90
48019;DHT22;33786;48.690;9.562;2023-09-19T05:42:20;17.90;99.90
48019;DHT22;33786;48.690;9.562;2023-09-19T05:44:49;17.80;99.90
48019;DHT22;33786;48.690;9.562;2023-09-19T05:47:21;17.80;99.90
48019;DHT22;33786;48.690;9.562;2023-09-19T05:49:49;17.80;99.90
48019;DHT22;33786;48.690;9.562;2023-09-19T05:52:19;17.70;99.90
48019;DHT22;33786;48.690;9.562;2023-09-19T05:54:48;17.60;99.90
48019;DHT22;33786;48.690;9.562;2023-09-19T05:57:15;17.40;99.90
48019;DHT22;33786;48.690;9.562;2023-09-19T05:59:43;17.20;99.90
48019;DHT22;33786;48.690;9.562;2023-09-19T06:02:14;17.00;99.90
48019;DHT22;33786;48.690;9.562;2023-09-19T06:04:43;17.00;99.90
48019;DHT22;33786;48.690;9.562;2023-09-19T06:07:10;17.00;99.90
48019;DHT22;33786;48.690;9.562;2023-09-19T06:09:40;17.00;99.90
48019;DHT22;33786;48.690;9.562;2023-09-19T06:12:07;17.00;99.90
48019;DHT22;33786;48.690;9.562;2023-09-19T06:14:36;16.90;99.90
48019;DHT22;33786;48.690;9.562;2023-09-19T06:17:07;16.80;99.90
48019;DHT22;33786;48.690;9.562;2023-09-19T06:19:38;16.80;99.90
48019;DHT22;33786;48.690;9.562;2023-09-19T06:22:05;16.80;99.90
48019;DHT22;33786;48.690;9.562;2023-09-19T06:24:32;16.90;99.90
48019;DHT22;33786;48.690;9.562;2023-09-19T06:26:59;17.00;99.90
48019;DHT22;33786;48.690;9.562;2023-09-19T06:29:34;17.20;99.90
48019;DHT22;33786;48.690;9.562;2023-09-19T06:32:08;17.30;99.90
48019;DHT22;33786;48.690;9.562;2023-09-19T06:34:41;17.30;99.90
48019;DHT22;33786;48.690;9.562;2023-09-19T06:37:16;17.50;99.90
48019;DHT22;33786;48.690;9.562;2023-09-19T06:39:52;17.30;99.90
48019;DHT22;33786;48.690;9.562;2023-09-19T06:42:19;17.00;99.90
48019;DHT22;33786;48.690;9.562;2023-09-19T06:44:48;17.10;99.90
48019;DHT22;33786;48.690;9.562;2023-09-19T06:47:14;17.10;99.90
48019;DHT22;33786;48.690;9.562;2023-09-19T06:49:43;17.00;99.90
48019;DHT22;33786;48.690;9.562;2023-09-19T06:52:12;17.10;99.90
48019;DHT22;33786;48.690;9.562;2023-09-19T06:54:39;17.10;99.90
48019;DHT22;33786;48.690;9.562;2023-09-19T06:57:06;17.10;99.90
48019;DHT22;33786;48.690;9.562;2023-09-19T06:59:36;17.00;99.90
48019;DHT22;33786;48.690;9.562;2023-09-19T07:02:03;16.80;99.90
48019;DHT22;33786;48.690;9.562;2023-09-19T07:04:33;16.70;99.90
48019;DHT22;33786;48.690;9.562;2023-09-19T07:06:59;16.70;99.90
48019;DHT22;33786;48.690;9.562;2023-09-19T07:09:26;16.60;99.90
48019;DHT22;33786;48.690;9.562;2023-09-19T07:11:54;16.70;99.90
48019;DHT22;33786;48.690;9.562;2023-09-19T07:14:21;16.70;99.90
48019;DHT22;33786;48.690;9.562;2023-09-19T07:16:47;16.70;99.90
48019;DHT22;33786;48.690;9.562;2023-09-19T07:19:16;16.70;99.90
48019;DHT22;33786;48.690;9.562;2023-09-19T07:21:43;16.80;99.90
48019;DHT22;33786;48.690;9.562;2023-09-19T07:24:09;16.90;99.90
48019;DHT22;33786;48.690;9.562;2023-09-19T07:26:36;17.20;99.90
48019;DHT22;33786;48.690;9.562;2023-09-19T07:29:03;17.60;99.90
48019;DHT22;33786;48.690;9.562;2023-09-19T07:31:30;18.60;99.90
48019;DHT22;33786;48.690;9.562;2023-09-19T07:33:57;19.60;99.90
48019;DHT22;33786;48.690;9.562;2023-09-19T07:36:24;21.00;99.90
48019;DHT22;33786;48.690;9.562;2023-09-19T07:38:51;22.20;99.90
48019;DHT22;33786;48.690;9.562;2023-09-19T07:41:18;22.80;99.90
48019;DHT22;33786;48.690;9.562;2023-09-19T07:43:44;23.50;99.90
48019;DHT22;33786;48.690;9.562;2023-09-19T07:46:11;23.60;99.90
48019;DHT22;33786;48.690;9.562;2023-09-19T07:48:38;22.80;99.90
48019;DHT22;33786;48.690;9.562;2023-09-19T07:51:07;21.70;99.90
48019;DHT22;33786;48.690;9.562;2023-09-19T07:53:35;21.10;99.90
48019;DHT22;33786;48.690;9.562;2023-09-19T07:56:03;20.60;99.90
48019;DHT22;33786;48.690;9.562;2023-09-19T07:58:30;20.30;99.90
48019;DHT22;33786;48.690;9.562;2023-09-19T08:01:02;20.10;99.90
48019;DHT22;33786;48.690;9.562;2023-09-19T08:03:29;20.00;99.90
48019;DHT22;33786;48.690;9.562;2023-09-19T08:05:56;19.70;99.90
48019;DHT22;33786;48.690;9.562;2023-09-19T08:08:24;19.70;99.90
48019;DHT22;33786;48.690;9.562;2023-09-19T08:10:53;19.90;99.90
48019;DHT22;33786;48.690;9.562;2023-09-19T08:13:20;20.50;99.90
48019;DHT22;33786;48.690;9.562;2023-09-19T08:15:48;21.90;99.90
48019;DHT22;33786;48.690;9.562;2023-09-19T08:18:15;22.80;99.90
48019;DHT22;33786;48.690;9.562;2023-09-19T08:20:42;24.10;99.90
48019;DHT22;33786;48.690;9.562;2023-09-19T08:23:09;24.40;99.90
48019;DHT22;33786;48.690;9.562;2023-09-19T08:25:36;25.90;98.00
48019;DHT22;33786;48.690;9.562;2023-09-19T08:28:04;26.50;96.40
48019;DHT22;33786;48.690;9.562;2023-09-19T08:30:35;26.60;96.80
48019;DHT22;33786;48.690;9.562;2023-09-19T08:33:02;26.90;95.60
48019;DHT22;33786;48.690;9.562;2023-09-19T08:35:31;26.50;95.20
48019;DHT22;33786;48.690;9.562;2023-09-19T08:37:58;26.10;96.30
48019;DHT22;33786;48.690;9.562;2023-09-19T08:40:27;25.50;96.50
48019;DHT22;33786;48.690;9.562;2023-09-19T08:42:56;24.80;97.50
48019;DHT22;33786;48.690;9.562;2023-09-19T08:45:24;23.90;98.50
48019;DHT22;33786;48.690;9.562;2023-09-19T08:48:12;23.80;98.70
48019;DHT22;33786;48.690;9.562;2023-09-19T08:53:15;23.60;98.60
48019;DHT22;33786;48.690;9.562;2023-09-19T08:55:42;23.80;98.50
48019;DHT22;33786;48.690;9.562;2023-09-19T08:58:10;24.10;98.60
48019;DHT22;33786;48.690;9.562;2023-09-19T09:00:39;24.80;97.40
48019;DHT22;33786;48.690;9.562;2023-09-19T09:03:10;25.80;96.80
48019;DHT22;33786;48.690;9.562;2023-09-19T09:05:38;26.30;95.90
48019;DHT22;33786;48.690;9.562;2023-09-19T09:08:08;25.80;95.80
48019;DHT22;33786;48.690;9.562;2023-09-19T09:10:37;24.80;96.80
48019;DHT22;33786;48.690;9.562;2023-09-19T09:13:04;23.90;98.10
48019;DHT22;33786;48.690;9.562;2023-09-19T09:15:35;23.40;99.20
48019;DHT22;33786;48.690;9.562;2023-09-19T09:18:02;22.60;99.90
48019;DHT22;33786;48.690;9.562;2023-09-19T09:20:29;21.80;99.60
48019;DHT22;33786;48.690;9.562;2023-09-19T09:22:56;21.30;99.90
48019;DHT22;33786;48.690;9.562;2023-09-19T09:28:23;21.20;99.90
48019;DHT22;33786;48.690;9.562;2023-09-19T09:30:50;21.20;99.90
48019;DHT22;33786;48.690;9.562;2023-09-19T09:33:17;21.30;99.90
48019;DHT22;33786;48.690;9.562;2023-09-19T09:35:48;21.20;99.90
48019;DHT22;33786;48.690;9.562;2023-09-19T09:38:19;21.30;99.90
48019;DHT22;33786;48.690;9.562;2023-09-19T09:40:48;22.50;98.00
48019;DHT22;33786;48.690;9.562;2023-09-19T09:43:34;22.90;97.20
48019;DHT22;33786;48.690;9.562;2023-09-19T09:46:19;22.50;97.30
48019;DHT22;33786;48.690;9.562;2023-09-19T09:49:02;22.20;98.20
48019;DHT22;33786;48.690;9.562;2023-09-19T09:51:43;22.60;97.80
48019;DHT22;33786;48.690;9.562;2023-09-19T09:54:17;23.90;96.50
48019;DHT22;33786;48.690;9.562;2023-09-19T09:56:55;24.50;94.10
48019;DHT22;33786;48.690;9.562;2023-09-19T10:02:13;24.30;93.90
48019;DHT22;33786;48.690;9.562;2023-09-19T10:04:43;25.40;93.70
48019;DHT22;33786;48.690;9.562;2023-09-19T10:07:25;25.90;91.90
48019;DHT22;33786;48.690;9.562;2023-09-19T10:09:54;25.20;92.50
48019;DHT22;33786;48.690;9.562;2023-09-19T10:12:31;25.00;92.90
48019;DHT22;33786;48.690;9.562;2023-09-19T10:14:58;23.90;93.60
48019;DHT22;33786;48.690;9.562;2023-09-19T10:17:27;23.00;94.30
48019;DHT22;33786;48.690;9.562;2023-09-19T10:19:55;22.70;95.50
48019;DHT22;33786;48.690;9.562;2023-09-19T10:22:26;23.40;94.70
48019;DHT22;33786;48.690;9.562;2023-09-19T10:24:53;24.70;93.70
48019;DHT22;33786;48.690;9.562;2023-09-19T10:27:29;25.80;92.50
48019;DHT22;33786;48.690;9.562;2023-09-19T10:29:56;26.50;90.80
48019;DHT22;33786;48.690;9.562;2023-09-19T10:32:23;26.40;90.40
48019;DHT22;33786;48.690;9.562;2023-09-19T10:34:52;26.00;91.20
48019;DHT22;33786;48.690;9.562;2023-09-19T10:37:26;25.00;91.10
48019;DHT22;33786;48.690;9.562;2023-09-19T10:39:54;24.60;91.80
48019;DHT22;33786;48.690;9.562;2023-09-19T10:42:22;24.20;92.20
48019;DHT22;33786;48.690;9.562;2023-09-19T10:44:51;23.80;92.20
48019;DHT22;33786;48.690;9.562;2023-09-19T10:47:21;23.30;92.30
48019;DHT22;33786;48.690;9.562;2023-09-19T10:49:51;23.20;92.70
48019;DHT22;33786;48.690;9.562;2023-09-19T10:52:22;23.60;92.40
48019;DHT22;33786;48.690;9.562;2023-09-19T10:54:51;23.50;92.20
48019;DHT22;33786;48.690;9.562;2023-09-19T10:57:20;23.80;92.20
48019;DHT22;33786;48.690;9.562;2023-09-19T11:00:00;23.30;91.70
48019;DHT22;33786;48.690;9.562;2023-09-19T11:02:29;22.90;92.30
48019;DHT22;33786;48.690;9.562;2023-09-19T11:04:56;22.90;92.90
48019;DHT22;33786;48.690;9.562;2023-09-19T11:07:56;23.00;92.10
48019;DHT22;33786;48.690;9.562;2023-09-19T11:11:06;22.90;92.90
48019;DHT22;33786;48.690;9.562;2023-09-19T11:13:24;22.80;93.10
48019;DHT22;33786;48.690;9.562;2023-09-19T11:21:41;22.80;92.50
48019;DHT22;33786;48.690;9.562;2023-09-19T11:26:40;22.70;91.80
48019;DHT22;33786;48.690;9.562;2023-09-19T11:29:25;22.90;92.10
48019;DHT22;33786;48.690;9.562;2023-09-19T11:31:53;23.10;91.50
48019;DHT22;33786;48.690;9.562;2023-09-19T11:37:02;23.30;91.60
48019;DHT22;33786;48.690;9.562;2023-09-19T11:39:31;23.50;90.40
48019;DHT22;33786;48.690;9.562;2023-09-19T11:41:58;23.60;90.00
48019;DHT22;33786;48.690;9.562;2023-09-19T11:46:54;23.80;90.50
48019;DHT22;33786;48.690;9.562;2023-09-19T11:49:26;23.90;90.10
48019;DHT22;33786;48.690;9.562;2023-09-19T11:51:56;24.00;90.20
48019;DHT22;33786;48.690;9.562;2023-09-19T11:54:23;24.00;90.90
48019;DHT22;33786;48.690;9.562;2023-09-19T11:56:54;24.10;90.40
48019;DHT22;33786;48.690;9.562;2023-09-19T11:59:21;24.40;90.10
48019;DHT22;33786;48.690;9.562;2023-09-19T12:01:52;24.30;90.30
48019;DHT22;33786;48.690;9.562;2023-09-19T12:07:07;24.20;89.60
48019;DHT22;33786;48.690;9.562;2023-09-19T12:09:39;24.50;89.90
48019;DHT22;33786;48.690;9.562;2023-09-19T12:12:06;24.50;89.60
48019;DHT22;33786;48.690;9.562;2023-09-19T12:14:33;24.50;89.50
48019;DHT22;33786;48.690;9.562;2023-09-19T12:17:00;24.10;87.40
48019;DHT22;33786;48.690;9.562;2023-09-19T12:19:28;23.90;88.00
48019;DHT22;33786;48.690;9.562;2023-09-19T12:24:26;24.50;90.50
48019;DHT22;33786;48.690;9.562;2023-09-19T12:27:00;25.00;89.40
48019;DHT22;33786;48.690;9.562;2023-09-19T12:29:31;25.20;90.20
48019;DHT22;33786;48.690;9.562;2023-09-19T12:31:58;25.00;85.90
48019;DHT22;33786;48.690;9.562;2023-09-19T12:34:27;25.10;86.90
48019;DHT22;33786;48.690;9.562;2023-09-19T12:39:50;24.80;90.20
48019;DHT22;33786;48.690;9.562;2023-09-19T12:42:22;24.80;88.50
48019;DHT22;33786;48.690;9.562;2023-09-19T12:44:53;24.70;89.50
48019;DHT22;33786;48.690;9.562;2023-09-19T12:47:24;24.20;89.30
48019;DHT22;33786;48.690;9.562;2023-09-19T12:50:07;24.40;90.50
48019;DHT22;33786;48.690;9.562;2023-09-19T12:55:19;23.90;90.00
48019;DHT22;33786;48.690;9.562;2023-09-19T13:00:35;23.90;90.80
48019;DHT22;33786;48.690;9.562;2023-09-19T13:05:46;23.80;90.30
48019;DHT22;33786;48.690;9.562;2023-09-19T13:08:46;23.80;90.30
48019;DHT22;33786;48.690;9.562;2023-09-19T13:11:12;23.80;89.20
48019;DHT22;33786;48.690;9.562;2023-09-19T13:16:07;23.80;90.00
48019;DHT22;33786;48.690;9.562;2023-09-19T13:18:41;23.70;89.20
48019;DHT22;33786;48.690;9.562;2023-09-19T13:21:09;23.80;88.40
48019;DHT22;33786;48.690;9.562;2023-09-19T13:23:38;23.60;89.50
48019;DHT22;33786;48.690;9.562;2023-09-19T13:26:06;23.80;89.50
48019;DHT22;33786;48.690;9.562;2023-09-19T13:28:33;24.00;89.00
48019;DHT22;33786;48.690;9.562;2023-09-19T13:31:00;24.00;88.10
48019;DHT22;33786;48.690;9.562;2023-09-19T13:33:28;23.80;87.10
48019;DHT22;33786;48.690;9.562;2023-09-19T13:35:57;23.70;87.80
48019;DHT22;33786;48.690;9.562;2023-09-19T13:38:24;23.70;88.80
48019;DHT22;33786;48.690;9.562;2023-09-19T13:40:51;23.60;86.90
48019;DHT22;33786;48.690;9.562;2023-09-19T13:43:19;23.60;89.30
48019;DHT22;33786;48.690;9.562;2023-09-19T13:45:48;23.70;89.10
48019;DHT22;33786;48.690;9.562;2023-09-19T13:48:16;23.60;90.20
48019;DHT22;33786;48.690;9.562;2023-09-19T13:50:47;23.60;88.90
48019;DHT22;33786;48.690;9.562;2023-09-19T13:53:14;23.80;89.70
48019;DHT22;33786;48.690;9.562;2023-09-19T13:55:41;23.80;88.80
48019;DHT22;33786;48.690;9.562;2023-09-19T13:58:08;23.80;88.40
48019;DHT22;33786;48.690;9.562;2023-09-19T14:00:37;23.60;89.20
48019;DHT22;33786;48.690;9.562;2023-09-19T14:03:05;23.40;88.60
48019;DHT22;33786;48.690;9.562;2023-09-19T14:05:32;23.30;90.00
48019;DHT22;33786;48.690;9.562;2023-09-19T14:07:59;23.50;89.90
48019;DHT22;33786;48.690;9.562;2023-09-19T14:10:26;23.50;89.40
48019;DHT22;33786;48.690;9.562;2023-09-19T14:12:54;23.40;90.00
48019;DHT22;33786;48.690;9.562;2023-09-19T14:15:21;23.50;89.00
48019;DHT22;33786;48.690;9.562;2023-09-19T14:17:58;23.50;89.40
48019;DHT22;33786;48.690;9.562;2023-09-19T14:20:27;23.70;90.00
48019;DHT22;33786;48.690;9.562;2023-09-19T14:22:54;23.80;89.40
48019;DHT22;33786;48.690;9.562;2023-09-19T14:25:21;23.60;90.20
48019;DHT22;33786;48.690;9.562;2023-09-19T14:27:50;23.70;89.60
48019;DHT22;33786;48.690;9.562;2023-09-19T14:30:16;23.80;89.80
48019;DHT22;33786;48.690;9.562;2023-09-19T14:32:43;23.80;90.00
48019;DHT22;33786;48.690;9.562;2023-09-19T14:35:10;23.70;88.50
48019;DHT22;33786;48.690;9.562;2023-09-19T14:37:37;23.70;88.00
48019;DHT22;33786;48.690;9.562;2023-09-19T14:40:06;23.50;87.90
48019;DHT22;33786;48.690;9.562;2023-09-19T14:42:38;23.40;87.20
48019;DHT22;33786;48.690;9.562;2023-09-19T14:45:05;23.30;87.30
48019;DHT22;33786;48.690;9.562;2023-09-19T14:47:33;23.10;87.70
48019;DHT22;33786;48.690;9.562;2023-09-19T14:50:04;23.00;87.60
48019;DHT22;33786;48.690;9.562;2023-09-19T14:52:34;23.10;88.30
48019;DHT22;33786;48.690;9.562;2023-09-19T14:55:02;23.00;88.60
48019;DHT22;33786;48.690;9.562;2023-09-19T14:57:31;22.90;88.60
48019;DHT22;33786;48.690;9.562;2023-09-19T14:59:58;22.90;88.30
48019;DHT22;33786;48.690;9.562;2023-09-19T15:02:26;22.90;89.00
48019;DHT22;33786;48.690;9.562;2023-09-19T15:04:54;22.90;88.90
48019;DHT22;33786;48.690;9.562;2023-09-19T15:07:21;23.00;89.60
48019;DHT22;33786;48.690;9.562;2023-09-19T15:09:47;22.90;88.50
48019;DHT22;33786;48.690;9.562;2023-09-19T15:12:14;22.90;88.40
48019;DHT22;33786;48.690;9.562;2023-09-19T15:14:41;22.80;88.50
48019;DHT22;33786;48.690;9.562;2023-09-19T15:17:11;22.90;88.80
48019;DHT22;33786;48.690;9.562;2023-09-19T15:19:38;22.80;87.60
48019;DHT22;33786;48.690;9.562;2023-09-19T15:22:04;23.00;88.00
48019;DHT22;33786;48.690;9.562;2023-09-19T15:24:32;22.70;88.30
48019;DHT22;33786;48.690;9.562;2023-09-19T15:26:59;22.70;87.80
48019;DHT22;33786;48.690;9.562;2023-09-19T15:29:26;22.80;87.80
48019;DHT22;33786;48.690;9.562;2023-09-19T15:31:54;22.70;88.00
48019;DHT22;33786;48.690;9.562;2023-09-19T15:34:21;22.70;88.60
48019;DHT22;33786;48.690;9.562;2023-09-19T15:36:48;22.60;89.00
48019;DHT22;33786;48.690;9.562;2023-09-19T15:39:15;22.70;88.30
48019;DHT22;33786;48.690;9.562;2023-09-19T15:41:45;22.80;88.10
48019;DHT22;33786;48.690;9.562;2023-09-19T15:44:13;22.90;88.70
48019;DHT22;33786;48.690;9.562;2023-09-19T15:46:40;22.80;87.70
48019;DHT22;33786;48.690;9.562;2023-09-19T15:49:08;22.70;87.30
48019;DHT22;33786;48.690;9.562;2023-09-19T15:51:34;22.70;87.60
48019;DHT22;33786;48.690;9.562;2023-09-19T15:54:08;22.70;87.80
48019;DHT22;33786;48.690;9.562;2023-09-19T15:56:35;22.60;87.90
48019;DHT22;33786;48.690;9.562;2023-09-19T15:59:02;22.60;87.30
48019;DHT22;33786;48.690;9.562;2023-09-19T16:01:29;22.50;88.20
48019;DHT22;33786;48.690;9.562;2023-09-19T16:03:56;22.40;87.60
48019;DHT22;33786;48.690;9.562;2023-09-19T16:06:24;22.30;87.50
48019;DHT22;33786;48.690;9.562;2023-09-19T16:08:52;22.30;87.50
48019;DHT22;33786;48.690;9.562;2023-09-19T16:11:19;22.20;87.30
48019;DHT22;33786;48.690;9.562;2023-09-19T16:13:49;22.10;87.90
48019;DHT22;33786;48.690;9.562;2023-09-19T16:16:17;22.10;87.10
48019;DHT22;33786;48.690;9.562;2023-09-19T16:18:50;21.90;87.80
48019;DHT22;33786;48.690;9.562;2023-09-19T16:21:18;21.90;87.90
48019;DHT22;33786;48.690;9.562;2023-09-19T16:23:46;21.70;88.60
48019;DHT22;33786;48.690;9.562;2023-09-19T16:26:14;21.80;89.00
48019;DHT22;33786;48.690;9.562;2023-09-19T16:28:41;21.80;88.80
48019;DHT22;33786;48.690;9.562;2023-09-19T16:31:09;21.70;88.40
48019;DHT22;33786;48.690;9.562;2023-09-19T16:33:36;21.70;88.90